Terminal Aerodrome Forecast
Issued by NWS Cleveland, OH

Home | Current Version | Previous Version | Graphics & Text | Print | Product List | Glossary Off
Versions: 1 2 3 4 5 6 7 8 9 10 11 12 13 14 15 16 17 18 19 20 21 22 23

613
FTUS41 KCLE 222126 AAA
TAFTOL
TAF AMD
KTOL 222126Z 2221/2318 22008KT P6SM OVC025
     FM230400 20008KT 6SM BR OVC025
     FM230800 22010KT 3SM BR OVC009
     FM231500 26008KT P6SM BKN015=

USA.gov is the U.S. government's official web portal to all federal, state and local government web resources and services.